createdAt,value
2018-09-03T00:01:22.644Z,20.80
2018-09-03T00:03:50.637Z,20.70
2018-09-03T00:06:18.684Z,20.70
2018-09-03T00:08:46.762Z,20.70
2018-09-03T00:11:14.853Z,20.60
2018-09-03T00:13:43.241Z,20.60
2018-09-03T00:16:11.253Z,20.60
2018-09-03T00:18:39.272Z,20.60
2018-09-03T00:21:07.629Z,20.60
2018-09-03T00:23:35.596Z,20.60
2018-09-03T00:26:03.665Z,20.50
2018-09-03T00:28:31.704Z,20.50
2018-09-03T00:31:05.278Z,20.50
2018-09-03T00:33:38.722Z,20.50
2018-09-03T00:36:12.481Z,20.50
2018-09-03T00:38:46.057Z,20.50
2018-09-03T00:41:19.584Z,20.50
2018-09-03T00:43:53.230Z,20.50
2018-09-03T00:46:26.786Z,20.50
2018-09-03T00:48:54.843Z,20.50
2018-09-03T00:51:22.918Z,20.40
2018-09-03T00:53:50.928Z,20.30
2018-09-03T00:56:19.072Z,20.30
2018-09-03T00:58:47.152Z,20.30
2018-09-03T01:01:15.234Z,20.20
2018-09-03T01:03:43.251Z,20.30
2018-09-03T01:06:11.299Z,20.30
2018-09-03T01:08:39.402Z,20.30
2018-09-03T01:11:07.990Z,20.30
2018-09-03T01:13:36.069Z,20.30
2018-09-03T01:16:04.073Z,20.30
2018-09-03T01:18:36.372Z,20.30
2018-09-03T01:21:04.413Z,20.30
2018-09-03T01:23:32.517Z,20.40
2018-09-03T01:26:00.600Z,20.30
2018-09-03T01:28:28.596Z,20.30
2018-09-03T01:30:56.663Z,20.30
2018-09-03T01:33:24.709Z,20.10
2018-09-03T01:35:52.816Z,20.10
2018-09-03T01:38:21.033Z,20.10
2018-09-03T01:40:49.047Z,20.00
2018-09-03T01:43:17.085Z,20.00
2018-09-03T01:45:45.288Z,19.90
2018-09-03T01:48:13.316Z,19.90
2018-09-03T01:50:41.352Z,19.90
2018-09-03T01:55:44.152Z,19.80
2018-09-03T01:58:12.156Z,19.70
2018-09-03T02:00:40.157Z,19.70
2018-09-03T02:03:08.509Z,19.60
2018-09-03T02:05:36.524Z,19.60
2018-09-03T02:08:04.876Z,19.50
2018-09-03T02:10:32.969Z,19.40
2018-09-03T02:13:01.046Z,19.50
2018-09-03T02:15:29.098Z,19.40
2018-09-03T02:17:57.185Z,19.40
2018-09-03T02:20:25.204Z,19.30
2018-09-03T02:22:53.517Z,19.40
2018-09-03T02:25:21.522Z,19.40
2018-09-03T02:27:49.529Z,19.40
2018-09-03T02:30:17.582Z,19.40
2018-09-03T02:32:45.577Z,19.30
2018-09-03T02:35:13.640Z,19.20
2018-09-03T02:37:41.644Z,19.20
2018-09-03T02:40:09.649Z,19.10
2018-09-03T02:42:37.684Z,19.10
2018-09-03T02:45:07.068Z,19.00
2018-09-03T02:47:35.113Z,18.90
2018-09-03T02:50:03.129Z,18.80
2018-09-03T02:52:31.531Z,18.80
2018-09-03T02:54:59.520Z,18.80
2018-09-03T02:57:27.534Z,18.80
2018-09-03T02:59:55.572Z,18.80
2018-09-03T03:02:23.724Z,18.60
2018-09-03T03:04:51.978Z,18.60
2018-09-03T03:07:19.981Z,18.70
2018-09-03T03:09:48.056Z,18.60
2018-09-03T03:12:25.909Z,18.50
2018-09-03T03:14:57.016Z,18.40
2018-09-03T03:17:25.162Z,18.30
2018-09-03T03:19:53.599Z,18.30
2018-09-03T03:22:21.631Z,18.20
2018-09-03T03:24:50.674Z,18.10
2018-09-03T03:27:18.747Z,18.10
2018-09-03T03:29:46.818Z,18.00
2018-09-03T03:32:14.877Z,17.90
2018-09-03T03:34:42.890Z,17.90
2018-09-03T03:37:11.279Z,17.80
2018-09-03T03:39:39.276Z,17.80
2018-09-03T03:42:07.284Z,17.70
2018-09-03T03:44:35.601Z,17.70
2018-09-03T03:47:03.714Z,17.70
2018-09-03T03:49:31.797Z,17.70
2018-09-03T03:51:59.841Z,17.70
2018-09-03T03:54:28.013Z,17.60
2018-09-03T03:56:56.063Z,17.60
2018-09-03T03:59:24.149Z,17.60
2018-09-03T04:01:52.316Z,17.60
2018-09-03T04:04:20.334Z,17.70
2018-09-03T04:06:48.317Z,17.60
2018-09-03T04:09:16.369Z,17.60
2018-09-03T04:11:44.391Z,17.50
2018-09-03T04:14:12.741Z,17.50
2018-09-03T04:16:40.750Z,17.50
2018-09-03T04:19:08.811Z,17.60
2018-09-03T04:21:36.925Z,17.60
2018-09-03T04:24:04.946Z,17.50
2018-09-03T04:26:33.006Z,17.40
2018-09-03T04:29:01.005Z,17.30
2018-09-03T04:31:29.022Z,17.30
2018-09-03T04:33:57.070Z,17.30
2018-09-03T04:36:25.176Z,17.30
2018-09-03T04:38:53.291Z,17.30
2018-09-03T04:41:21.366Z,17.30
2018-09-03T04:43:49.435Z,17.20
2018-09-03T04:46:17.926Z,17.20
2018-09-03T04:48:46.134Z,17.30
2018-09-03T04:51:14.141Z,17.30
2018-09-03T04:53:42.145Z,17.40
2018-09-03T04:56:10.276Z,17.40
2018-09-03T04:58:38.282Z,17.40
2018-09-03T05:01:06.469Z,17.40
2018-09-03T05:03:34.521Z,17.40
2018-09-03T05:06:02.591Z,17.40
2018-09-03T05:08:30.904Z,17.40
2018-09-03T05:10:58.910Z,17.50
2018-09-03T05:13:26.918Z,17.50
2018-09-03T05:15:54.961Z,17.50
2018-09-03T05:18:22.974Z,17.60
2018-09-03T05:20:51.009Z,17.70
2018-09-03T05:23:19.057Z,17.80
2018-09-03T05:25:47.186Z,18.00
2018-09-03T05:28:15.185Z,18.10
2018-09-03T05:30:43.225Z,18.20
2018-09-03T05:33:11.534Z,18.20
2018-09-03T05:35:39.630Z,18.30
2018-09-03T05:38:07.712Z,18.50
2018-09-03T05:40:35.818Z,18.60
2018-09-03T05:43:03.923Z,18.70
2018-09-03T05:45:31.913Z,18.60
2018-09-03T05:47:59.960Z,18.70
2018-09-03T05:50:28.088Z,18.50
2018-09-03T05:52:56.004Z,18.60
2018-09-03T05:55:24.104Z,18.80
2018-09-03T05:57:52.177Z,18.90
2018-09-03T06:00:20.189Z,19.00
2018-09-03T06:02:55.001Z,19.00
2018-09-03T06:05:23.005Z,19.10
2018-09-03T06:07:51.043Z,18.90
2018-09-03T06:10:19.356Z,18.90
2018-09-03T06:12:47.420Z,19.00
2018-09-03T06:15:15.438Z,19.20
2018-09-03T06:17:43.866Z,19.20
2018-09-03T06:20:11.817Z,19.20
2018-09-03T06:22:39.882Z,19.10
2018-09-03T06:25:08.273Z,19.20
2018-09-03T06:27:36.362Z,19.20
2018-09-03T06:30:04.737Z,19.10
2018-09-03T06:32:32.837Z,19.30
2018-09-03T06:35:00.922Z,19.50
2018-09-03T06:37:28.974Z,19.80
2018-09-03T06:39:57.093Z,19.80
2018-09-03T06:42:25.169Z,20.00
2018-09-03T06:44:53.172Z,19.70
2018-09-03T06:47:21.213Z,19.60
2018-09-03T06:49:49.234Z,19.80
2018-09-03T06:52:17.233Z,20.00
2018-09-03T06:54:45.298Z,20.20
2018-09-03T06:57:13.561Z,20.20
2018-09-03T06:59:41.653Z,20.20
2018-09-03T07:02:09.629Z,20.30
2018-09-03T07:04:37.830Z,20.40
2018-09-03T07:07:06.462Z,20.30
2018-09-03T07:09:34.469Z,20.30
2018-09-03T07:12:02.481Z,20.40
2018-09-03T07:14:30.516Z,20.60
2018-09-03T07:16:58.522Z,20.70
2018-09-03T07:19:26.773Z,20.80
2018-09-03T07:21:54.816Z,20.80
2018-09-03T07:24:22.922Z,20.70
2018-09-03T07:26:50.929Z,20.80
2018-09-03T07:29:19.173Z,21.00
2018-09-03T07:31:47.469Z,21.20
2018-09-03T07:34:15.478Z,21.30
2018-09-03T07:36:43.483Z,21.20
2018-09-03T07:39:11.613Z,21.20
2018-09-03T07:41:39.649Z,21.10
2018-09-03T07:44:07.814Z,21.20
2018-09-03T07:46:35.800Z,21.30
2018-09-03T07:49:03.913Z,21.30
2018-09-03T07:51:31.873Z,21.40
2018-09-03T07:53:59.894Z,21.50
2018-09-03T07:56:27.964Z,21.60
2018-09-03T07:58:55.997Z,21.70
2018-09-03T08:01:24.007Z,21.90
2018-09-03T08:03:52.057Z,21.90
2018-09-03T08:06:20.137Z,21.90
2018-09-03T08:08:48.217Z,22.40
2018-09-03T08:11:16.257Z,22.40
2018-09-03T08:13:44.287Z,22.50
2018-09-03T08:16:12.773Z,22.60
2018-09-03T08:18:41.400Z,22.70
2018-09-03T08:21:09.409Z,22.70
2018-09-03T08:23:37.401Z,22.70
2018-09-03T08:26:05.781Z,23.10
2018-09-03T08:28:33.825Z,23.10
2018-09-03T08:31:01.882Z,23.10
2018-09-03T08:33:29.989Z,22.90
2018-09-03T08:35:58.577Z,22.90
2018-09-03T08:38:26.575Z,23.20
2018-09-03T08:40:54.654Z,23.30
2018-09-03T08:43:22.681Z,23.40
2018-09-03T08:45:50.700Z,22.90
2018-09-03T08:48:18.796Z,22.80
2018-09-03T08:50:46.888Z,23.00
2018-09-03T08:53:15.206Z,23.20
2018-09-03T08:55:43.245Z,23.50
2018-09-03T08:58:11.337Z,23.60
2018-09-03T09:00:39.427Z,23.50
2018-09-03T09:03:11.690Z,23.50
2018-09-03T09:05:39.782Z,23.60
2018-09-03T09:08:07.836Z,23.60
2018-09-03T09:10:35.846Z,23.50
2018-09-03T09:13:03.841Z,23.60
2018-09-03T09:15:31.922Z,23.80
2018-09-03T09:18:00.017Z,24.10
2018-09-03T09:20:28.206Z,24.30
2018-09-03T09:22:56.265Z,24.40
2018-09-03T09:25:24.294Z,24.40
2018-09-03T09:27:52.291Z,24.60
2018-09-03T09:30:20.302Z,24.50
2018-09-03T09:32:48.614Z,24.60
2018-09-03T09:35:16.609Z,24.70
2018-09-03T09:37:44.668Z,24.90
2018-09-03T09:40:13.177Z,24.70
2018-09-03T09:42:41.457Z,24.70
2018-09-03T09:45:10.043Z,24.80
2018-09-03T09:47:38.346Z,25.00
2018-09-03T09:50:06.349Z,25.00
2018-09-03T09:52:34.505Z,25.30
2018-09-03T09:55:02.905Z,25.30
2018-09-03T09:57:30.999Z,25.50
2018-09-03T09:59:59.317Z,25.60
2018-09-03T10:02:27.665Z,25.60
2018-09-03T10:04:55.857Z,25.60
2018-09-03T10:07:23.896Z,25.60
2018-09-03T10:09:51.900Z,25.60
2018-09-03T10:12:25.351Z,25.60
2018-09-03T10:14:53.402Z,25.70
2018-09-03T10:17:21.500Z,25.90
2018-09-03T10:19:49.541Z,26.20
2018-09-03T10:22:17.661Z,26.20
2018-09-03T10:24:45.758Z,26.20
2018-09-03T10:27:14.081Z,26.40
2018-09-03T10:29:42.323Z,26.50
2018-09-03T10:32:10.369Z,26.60
2018-09-03T10:34:39.010Z,26.60
2018-09-03T10:37:08.012Z,26.30
2018-09-03T10:39:36.045Z,26.10
2018-09-03T10:42:04.285Z,26.10
2018-09-03T10:44:32.574Z,26.20
2018-09-03T10:47:00.664Z,26.30
2018-09-03T10:49:29.158Z,26.50
2018-09-03T10:51:57.653Z,26.50
2018-09-03T10:54:25.662Z,26.70
2018-09-03T10:56:54.124Z,26.70
2018-09-03T10:59:22.157Z,27.00
2018-09-03T11:01:50.161Z,26.80
2018-09-03T11:04:18.209Z,26.70
2018-09-03T11:06:46.254Z,26.60
2018-09-03T11:09:14.350Z,26.60
2018-09-03T11:11:42.729Z,26.80
2018-09-03T11:14:10.732Z,26.90
2018-09-03T11:16:38.793Z,26.90
2018-09-03T11:19:06.839Z,26.80
2018-09-03T11:21:35.143Z,26.80
2018-09-03T11:24:03.253Z,26.80
2018-09-03T11:26:31.258Z,26.80
2018-09-03T11:28:59.257Z,27.00
2018-09-03T11:31:27.297Z,27.00
2018-09-03T11:33:55.385Z,26.90
2018-09-03T11:36:23.421Z,26.90
2018-09-03T11:38:51.427Z,26.80
2018-09-03T11:41:19.417Z,26.80
2018-09-03T11:43:47.593Z,26.80
2018-09-03T11:46:15.609Z,27.00
2018-09-03T11:48:43.826Z,27.00
2018-09-03T11:51:11.838Z,27.10
2018-09-03T11:53:39.829Z,27.00
2018-09-03T11:56:07.941Z,27.00
2018-09-03T11:58:36.296Z,27.10
2018-09-03T12:01:04.626Z,27.00
2018-09-03T12:03:32.703Z,26.90
2018-09-03T12:06:00.705Z,26.70
2018-09-03T12:08:28.769Z,27.00
2018-09-03T12:10:56.853Z,27.00
2018-09-03T12:13:24.944Z,26.70
2018-09-03T12:16:23.902Z,26.70
2018-09-03T12:18:52.585Z,26.90
2018-09-03T12:21:20.629Z,27.20
2018-09-03T12:23:48.682Z,27.30
2018-09-03T12:26:16.681Z,27.10
2018-09-03T12:28:51.217Z,27.30
2018-09-03T12:31:19.239Z,27.50
2018-09-03T12:33:47.240Z,27.60
2018-09-03T12:36:15.377Z,27.40
2018-09-03T12:38:44.494Z,27.40
2018-09-03T12:41:12.505Z,27.50
2018-09-03T12:43:40.497Z,27.40
2018-09-03T12:46:08.891Z,27.40
2018-09-03T12:48:36.986Z,27.50
2018-09-03T12:51:05.591Z,27.60
2018-09-03T12:53:33.861Z,27.50
2018-09-03T12:56:02.617Z,27.40
2018-09-03T12:58:30.668Z,27.40
2018-09-03T13:00:58.667Z,27.60
2018-09-03T13:03:26.711Z,27.50
2018-09-03T13:05:54.730Z,27.40
2018-09-03T13:08:22.845Z,27.40
2018-09-03T13:10:50.852Z,27.40
2018-09-03T13:13:18.861Z,27.30
2018-09-03T13:15:46.900Z,27.50
2018-09-03T13:18:14.963Z,27.60
2018-09-03T13:20:43.054Z,27.50
2018-09-03T13:23:11.133Z,27.40
2018-09-03T13:25:39.154Z,27.30
2018-09-03T13:28:07.184Z,27.40
2018-09-03T13:30:35.192Z,27.40
2018-09-03T13:33:03.229Z,27.40
2018-09-03T13:35:31.285Z,27.40
2018-09-03T13:37:59.330Z,27.40
2018-09-03T13:40:27.419Z,27.50
2018-09-03T13:42:55.901Z,27.40
2018-09-03T13:45:23.902Z,27.40
2018-09-03T13:47:51.893Z,27.40
2018-09-03T13:50:20.214Z,27.30
2018-09-03T13:52:48.213Z,27.50
2018-09-03T13:55:16.326Z,27.60
2018-09-03T13:57:44.553Z,27.50
2018-09-03T14:00:13.313Z,27.40
2018-09-03T14:02:41.597Z,27.40
2018-09-03T14:05:09.649Z,27.40
2018-09-03T14:07:37.965Z,27.50
2018-09-03T14:10:06.065Z,27.20
2018-09-03T14:12:34.004Z,26.90
2018-09-03T14:15:02.133Z,26.90
2018-09-03T14:17:30.121Z,27.20
2018-09-03T14:19:58.834Z,27.40
2018-09-03T14:22:26.821Z,27.40
2018-09-03T14:24:54.977Z,27.30
2018-09-03T14:27:23.093Z,27.20
2018-09-03T14:29:51.165Z,27.10
2018-09-03T14:32:19.286Z,27.00
2018-09-03T14:34:47.426Z,26.90
2018-09-03T14:37:15.596Z,27.00
2018-09-03T14:39:43.688Z,27.20
2018-09-03T14:42:11.813Z,27.20
2018-09-03T14:44:39.888Z,27.40
2018-09-03T14:47:07.943Z,27.40
2018-09-03T14:49:36.400Z,27.00
2018-09-03T14:52:04.677Z,26.90
2018-09-03T14:54:32.679Z,27.10
2018-09-03T14:57:01.101Z,27.40
2018-09-03T14:59:29.089Z,27.50
2018-09-03T15:01:57.367Z,27.60
2018-09-03T15:04:25.601Z,27.50
2018-09-03T15:06:53.653Z,27.70
2018-09-03T15:09:21.653Z,27.70
2018-09-03T15:11:49.722Z,27.60
2018-09-03T15:14:17.784Z,27.50
2018-09-03T15:16:45.874Z,27.60
2018-09-03T15:19:13.952Z,27.50
2018-09-03T15:21:42.010Z,27.50
2018-09-03T15:24:10.021Z,27.50
2018-09-03T15:26:38.057Z,27.70
2018-09-03T15:29:06.089Z,27.90
2018-09-03T15:31:34.169Z,27.80
2018-09-03T15:34:02.172Z,27.80
2018-09-03T15:36:30.381Z,28.10
2018-09-03T15:38:58.329Z,28.50
2018-09-03T15:41:27.335Z,29.30
2018-09-03T15:43:55.380Z,29.90
2018-09-03T15:46:23.421Z,30.00
2018-09-03T15:48:51.590Z,29.40
2018-09-03T15:51:19.665Z,29.10
2018-09-03T15:53:47.708Z,28.70
2018-09-03T15:56:15.709Z,28.10
2018-09-03T15:58:43.701Z,27.70
2018-09-03T16:01:11.802Z,27.70
2018-09-03T16:03:39.804Z,28.00
2018-09-03T16:06:07.841Z,28.50
2018-09-03T16:08:35.834Z,28.50
2018-09-03T16:11:03.936Z,28.50
2018-09-03T16:13:31.945Z,28.00
2018-09-03T16:16:00.002Z,27.80
2018-09-03T16:18:28.263Z,27.70
2018-09-03T16:20:56.968Z,27.70
2018-09-03T16:23:24.973Z,27.50
2018-09-03T16:25:52.977Z,27.50
2018-09-03T16:28:21.029Z,27.40
2018-09-03T16:30:49.115Z,27.60
2018-09-03T16:33:17.156Z,27.50
2018-09-03T16:35:45.257Z,27.30
2018-09-03T16:38:13.250Z,26.90
2018-09-03T16:40:41.345Z,26.70
2018-09-03T16:43:09.433Z,26.50
2018-09-03T16:45:37.477Z,26.40
2018-09-03T16:48:05.489Z,26.30
2018-09-03T16:50:33.586Z,26.20
2018-09-03T16:53:01.674Z,26.00
2018-09-03T16:55:29.674Z,25.90
2018-09-03T16:57:57.732Z,25.90
2018-09-03T17:00:25.832Z,25.70
2018-09-03T17:02:53.897Z,25.80
2018-09-03T17:05:21.929Z,25.70
2018-09-03T17:07:50.142Z,25.60
2018-09-03T17:10:18.153Z,25.60
2018-09-03T17:12:46.226Z,25.40
2018-09-03T17:15:14.634Z,25.30
2018-09-03T17:17:42.717Z,25.30
2018-09-03T17:20:10.728Z,25.20
2018-09-03T17:22:38.777Z,25.20
2018-09-03T17:25:06.865Z,25.10
2018-09-03T17:27:34.873Z,25.10
2018-09-03T17:30:03.038Z,25.10
2018-09-03T17:32:31.107Z,25.00
2018-09-03T17:34:59.205Z,24.90
2018-09-03T17:37:27.285Z,24.80
2018-09-03T17:39:55.365Z,24.70
2018-09-03T17:42:23.558Z,24.70
2018-09-03T17:44:51.601Z,24.60
2018-09-03T17:47:19.625Z,24.60
2018-09-03T17:49:47.680Z,24.60
2018-09-03T17:52:15.839Z,24.50
2018-09-03T17:54:43.981Z,24.30
2018-09-03T17:57:12.025Z,24.20
2018-09-03T17:59:40.139Z,24.10
2018-09-03T18:02:08.210Z,24.00
2018-09-03T18:04:36.236Z,23.90
2018-09-03T18:07:04.284Z,23.80
2018-09-03T18:09:32.281Z,23.70
2018-09-03T18:12:00.470Z,23.70
2018-09-03T18:14:28.513Z,23.70
2018-09-03T18:16:56.604Z,23.80
2018-09-03T18:19:24.881Z,23.70
2018-09-03T18:21:53.153Z,23.70
2018-09-03T18:24:21.149Z,23.60
2018-09-03T18:26:49.190Z,23.50
2018-09-03T18:29:17.237Z,23.50
2018-09-03T18:31:45.327Z,23.40
2018-09-03T18:34:13.373Z,23.40
2018-09-03T18:36:41.378Z,23.40
2018-09-03T18:39:09.461Z,23.40
2018-09-03T18:41:37.931Z,23.30
2018-09-03T18:44:06.072Z,23.20
2018-09-03T18:46:34.073Z,23.10
2018-09-03T18:49:02.688Z,23.20
2018-09-03T18:51:30.793Z,23.20
2018-09-03T18:53:59.047Z,23.10
2018-09-03T18:56:28.037Z,23.10
2018-09-03T18:58:56.058Z,23.00
2018-09-03T19:01:24.110Z,23.00
2018-09-03T19:03:52.249Z,23.00
2018-09-03T19:06:20.367Z,23.00
2018-09-03T19:08:48.413Z,23.00
2018-09-03T19:11:16.526Z,22.90
2018-09-03T19:13:44.573Z,22.80
2018-09-03T19:16:12.709Z,22.90
2018-09-03T19:18:40.701Z,22.80
2018-09-03T19:21:09.005Z,22.80
2018-09-03T19:23:37.005Z,22.80
2018-09-03T19:26:05.146Z,22.60
2018-09-03T19:28:33.319Z,22.50
2018-09-03T19:31:01.285Z,22.40
2018-09-03T19:33:29.302Z,22.30
2018-09-03T19:35:57.292Z,22.20
2018-09-03T19:38:25.566Z,22.10
2018-09-03T19:40:53.565Z,21.90
2018-09-03T19:43:21.625Z,21.90
2018-09-03T19:45:49.958Z,21.80
2018-09-03T19:48:17.953Z,21.80
2018-09-03T19:50:45.961Z,21.70
2018-09-03T19:53:14.028Z,21.60
2018-09-03T19:55:42.034Z,21.50
2018-09-03T19:58:10.081Z,21.50
2018-09-03T20:00:38.270Z,21.50
2018-09-03T20:03:07.629Z,21.50
2018-09-03T20:05:35.732Z,21.50
2018-09-03T20:08:03.747Z,21.60
2018-09-03T20:10:31.773Z,21.50
2018-09-03T20:13:00.145Z,21.50
2018-09-03T20:15:28.456Z,21.50
2018-09-03T20:17:56.572Z,21.50
2018-09-03T20:20:24.875Z,21.50
2018-09-03T20:22:52.915Z,21.40
2018-09-03T20:25:21.214Z,21.40
2018-09-03T20:27:49.908Z,21.40
2018-09-03T20:30:17.904Z,21.30
2018-09-03T20:32:45.917Z,21.10
2018-09-03T20:35:14.032Z,21.00
2018-09-03T20:37:42.074Z,20.90
2018-09-03T20:40:16.901Z,20.80
2018-09-03T20:42:44.951Z,20.80
2018-09-03T20:45:12.970Z,20.80
2018-09-03T20:47:41.035Z,20.70
2018-09-03T20:50:09.258Z,20.60
2018-09-03T20:52:37.719Z,20.30
2018-09-03T20:55:05.857Z,20.10
2018-09-03T20:57:33.985Z,20.10
2018-09-03T21:00:02.083Z,19.90
2018-09-03T21:02:30.082Z,19.90
2018-09-03T21:04:58.092Z,19.90
2018-09-03T21:07:26.420Z,19.90
2018-09-03T21:09:54.417Z,20.00
2018-09-03T21:12:22.429Z,20.00
2018-09-03T21:14:50.578Z,20.00
2018-09-03T21:17:18.578Z,19.70
2018-09-03T21:19:46.641Z,19.80
2018-09-03T21:22:14.641Z,19.70
2018-09-03T21:24:43.022Z,19.50
2018-09-03T21:27:11.026Z,19.40
2018-09-03T21:29:39.030Z,19.30
2018-09-03T21:32:07.077Z,19.30
2018-09-03T21:34:35.085Z,19.10
2018-09-03T21:37:03.090Z,19.20
2018-09-03T21:39:31.129Z,19.10
2018-09-03T21:41:59.133Z,19.10
2018-09-03T21:44:27.452Z,19.00
2018-09-03T21:46:55.880Z,19.00
2018-09-03T21:49:23.878Z,19.10
2018-09-03T21:51:51.912Z,19.00
2018-09-03T21:54:19.945Z,19.00
2018-09-03T21:56:48.007Z,19.00
2018-09-03T21:59:17.729Z,19.00
2018-09-03T22:01:45.754Z,19.10
2018-09-03T22:04:13.765Z,19.20
2018-09-03T22:06:41.789Z,19.20
2018-09-03T22:09:09.788Z,19.10
2018-09-03T22:11:37.831Z,19.20
2018-09-03T22:14:05.930Z,19.30
2018-09-03T22:16:34.210Z,19.30
2018-09-03T22:19:02.213Z,19.20
2018-09-03T22:21:30.227Z,19.20
2018-09-03T22:23:58.317Z,19.20
2018-09-03T22:26:26.349Z,19.20
2018-09-03T22:28:54.437Z,19.10
2018-09-03T22:31:22.486Z,19.20
2018-09-03T22:33:50.525Z,19.10
2018-09-03T22:36:18.596Z,19.20
2018-09-03T22:38:46.635Z,19.20
2018-09-03T22:41:14.663Z,19.20
2018-09-03T22:43:42.707Z,19.20
2018-09-03T22:46:10.751Z,19.00
2018-09-03T22:48:38.807Z,18.90
2018-09-03T22:51:06.816Z,18.90
2018-09-03T22:53:35.006Z,18.90
2018-09-03T22:56:03.052Z,18.90
2018-09-03T22:58:31.146Z,19.00
2018-09-03T23:00:59.230Z,19.00
2018-09-03T23:03:27.317Z,19.00
2018-09-03T23:05:55.318Z,18.90
2018-09-03T23:08:23.473Z,18.80
2018-09-03T23:10:51.518Z,18.70
2018-09-03T23:13:19.566Z,18.70
2018-09-03T23:15:52.644Z,18.80
2018-09-03T23:18:21.823Z,18.70
2018-09-03T23:20:49.818Z,18.60
2018-09-03T23:23:17.826Z,18.50
2018-09-03T23:25:46.654Z,18.50
2018-09-03T23:28:14.665Z,18.40
2018-09-03T23:30:42.974Z,18.20
2018-09-03T23:33:11.688Z,18.20
2018-09-03T23:35:39.773Z,18.10
2018-09-03T23:38:07.816Z,18.10
2018-09-03T23:40:36.250Z,18.10
2018-09-03T23:43:04.257Z,18.10
2018-09-03T23:45:32.312Z,18.10
2018-09-03T23:48:00.623Z,18.10
2018-09-03T23:50:28.700Z,18.00
2018-09-03T23:52:57.281Z,18.00
2018-09-03T23:55:25.316Z,18.10
2018-09-03T23:57:53.661Z,18.00
